sensor_id;sensor_type;location;lat;lon;timestamp;P1;durP1;ratioP1;P2;durP2;ratioP2
35324;SDS011;35135;47.510;19.036;2022-10-20T00:00:10;1.63;;;1.15;;
35324;SDS011;35135;47.510;19.036;2022-10-20T00:02:36;3.13;;;1.50;;
35324;SDS011;35135;47.510;19.036;2022-10-20T00:05:02;2.47;;;1.52;;
35324;SDS011;35135;47.510;19.036;2022-10-20T00:07:28;2.30;;;1.40;;
35324;SDS011;35135;47.510;19.036;2022-10-20T00:09:53;2.50;;;1.35;;
35324;SDS011;35135;47.510;19.036;2022-10-20T00:12:19;2.03;;;1.50;;
35324;SDS011;35135;47.510;19.036;2022-10-20T00:14:45;2.63;;;1.48;;
35324;SDS011;35135;47.510;19.036;2022-10-20T00:17:11;1.90;;;1.20;;
35324;SDS011;35135;47.510;19.036;2022-10-20T00:19:36;2.03;;;1.52;;
35324;SDS011;35135;47.510;19.036;2022-10-20T00:22:02;2.33;;;1.42;;
35324;SDS011;35135;47.510;19.036;2022-10-20T00:24:27;3.95;;;1.70;;
35324;SDS011;35135;47.510;19.036;2022-10-20T00:26:53;1.55;;;1.20;;
35324;SDS011;35135;47.510;19.036;2022-10-20T00:29:19;1.40;;;1.27;;
35324;SDS011;35135;47.510;19.036;2022-10-20T00:31:44;1.35;;;1.23;;
35324;SDS011;35135;47.510;19.036;2022-10-20T00:34:10;1.80;;;1.35;;
35324;SDS011;35135;47.510;19.036;2022-10-20T00:36:36;1.70;;;1.30;;
35324;SDS011;35135;47.510;19.036;2022-10-20T00:39:03;1.85;;;1.27;;
35324;SDS011;35135;47.510;19.036;2022-10-20T00:41:29;2.22;;;1.40;;
35324;SDS011;35135;47.510;19.036;2022-10-20T00:46:22;2.25;;;1.33;;
35324;SDS011;35135;47.510;19.036;2022-10-20T00:48:51;1.95;;;1.20;;
35324;SDS011;35135;47.510;19.036;2022-10-20T00:51:21;1.52;;;1.30;;
35324;SDS011;35135;47.510;19.036;2022-10-20T00:53:52;1.75;;;1.40;;
35324;SDS011;35135;47.510;19.036;2022-10-20T00:58:49;1.77;;;1.27;;
35324;SDS011;35135;47.510;19.036;2022-10-20T01:01:15;1.95;;;1.35;;
35324;SDS011;35135;47.510;19.036;2022-10-20T01:03:43;1.77;;;1.40;;
35324;SDS011;35135;47.510;19.036;2022-10-20T01:06:13;1.58;;;1.38;;
35324;SDS011;35135;47.510;19.036;2022-10-20T01:08:40;2.00;;;1.40;;
35324;SDS011;35135;47.510;19.036;2022-10-20T01:11:15;1.60;;;1.50;;
35324;SDS011;35135;47.510;19.036;2022-10-20T01:19:04;1.50;;;1.25;;
35324;SDS011;35135;47.510;19.036;2022-10-20T01:30:13;2.03;;;1.38;;
35324;SDS011;35135;47.510;19.036;2022-10-20T01:43:34;1.77;;;1.33;;
35324;SDS011;35135;47.510;19.036;2022-10-20T01:46:02;1.33;;;1.13;;
35324;SDS011;35135;47.510;19.036;2022-10-20T01:48:31;2.00;;;1.40;;
35324;SDS011;35135;47.510;19.036;2022-10-20T01:50:58;1.88;;;1.13;;
35324;SDS011;35135;47.510;19.036;2022-10-20T01:53:26;2.20;;;1.55;;
35324;SDS011;35135;47.510;19.036;2022-10-20T01:55:52;1.35;;;1.23;;
35324;SDS011;35135;47.510;19.036;2022-10-20T02:01:33;1.95;;;1.02;;
35324;SDS011;35135;47.510;19.036;2022-10-20T02:04:25;1.40;;;1.10;;
35324;SDS011;35135;47.510;19.036;2022-10-20T02:07:13;2.17;;;1.38;;
35324;SDS011;35135;47.510;19.036;2022-10-20T02:09:47;1.52;;;1.23;;
35324;SDS011;35135;47.510;19.036;2022-10-20T02:12:21;2.42;;;1.60;;
35324;SDS011;35135;47.510;19.036;2022-10-20T02:14:51;2.10;;;1.40;;
35324;SDS011;35135;47.510;19.036;2022-10-20T02:17:18;3.28;;;1.17;;
35324;SDS011;35135;47.510;19.036;2022-10-20T02:19:45;2.05;;;1.23;;
35324;SDS011;35135;47.510;19.036;2022-10-20T02:22:13;1.70;;;1.20;;
35324;SDS011;35135;47.510;19.036;2022-10-20T02:24:40;3.15;;;1.45;;
35324;SDS011;35135;47.510;19.036;2022-10-20T02:27:09;2.20;;;1.23;;
35324;SDS011;35135;47.510;19.036;2022-10-20T02:29:41;2.72;;;1.00;;
35324;SDS011;35135;47.510;19.036;2022-10-20T02:32:27;1.65;;;1.20;;
35324;SDS011;35135;47.510;19.036;2022-10-20T02:34:55;2.20;;;1.40;;
35324;SDS011;35135;47.510;19.036;2022-10-20T02:37:21;2.50;;;1.42;;
35324;SDS011;35135;47.510;19.036;2022-10-20T02:39:47;2.03;;;1.30;;
35324;SDS011;35135;47.510;19.036;2022-10-20T02:42:13;1.40;;;1.05;;
35324;SDS011;35135;47.510;19.036;2022-10-20T02:44:41;2.10;;;1.42;;
35324;SDS011;35135;47.510;19.036;2022-10-20T02:47:07;1.65;;;1.20;;
35324;SDS011;35135;47.510;19.036;2022-10-20T02:49:33;1.50;;;1.10;;
35324;SDS011;35135;47.510;19.036;2022-10-20T02:51:58;1.33;;;1.02;;
35324;SDS011;35135;47.510;19.036;2022-10-20T02:54:24;1.65;;;1.30;;
35324;SDS011;35135;47.510;19.036;2022-10-20T02:56:51;2.53;;;1.48;;
35324;SDS011;35135;47.510;19.036;2022-10-20T02:59:17;1.77;;;1.15;;
35324;SDS011;35135;47.510;19.036;2022-10-20T03:01:43;2.15;;;1.25;;
35324;SDS011;35135;47.510;19.036;2022-10-20T03:04:09;1.77;;;1.20;;
35324;SDS011;35135;47.510;19.036;2022-10-20T03:06:34;1.65;;;1.38;;
35324;SDS011;35135;47.510;19.036;2022-10-20T03:09:00;1.45;;;1.10;;
35324;SDS011;35135;47.510;19.036;2022-10-20T03:11:26;2.88;;;1.00;;
35324;SDS011;35135;47.510;19.036;2022-10-20T03:13:52;1.67;;;1.30;;
35324;SDS011;35135;47.510;19.036;2022-10-20T03:16:17;1.40;;;0.95;;
35324;SDS011;35135;47.510;19.036;2022-10-20T03:18:43;1.33;;;1.20;;
35324;SDS011;35135;47.510;19.036;2022-10-20T03:21:08;1.80;;;1.25;;
35324;SDS011;35135;47.510;19.036;2022-10-20T03:23:34;1.10;;;1.00;;
35324;SDS011;35135;47.510;19.036;2022-10-20T03:26:00;1.85;;;1.10;;
35324;SDS011;35135;47.510;19.036;2022-10-20T03:28:30;1.40;;;1.20;;
35324;SDS011;35135;47.510;19.036;2022-10-20T03:30:56;2.00;;;1.20;;
35324;SDS011;35135;47.510;19.036;2022-10-20T03:33:22;1.60;;;1.20;;
35324;SDS011;35135;47.510;19.036;2022-10-20T03:35:48;1.13;;;1.02;;
35324;SDS011;35135;47.510;19.036;2022-10-20T03:38:14;1.63;;;1.10;;
35324;SDS011;35135;47.510;19.036;2022-10-20T03:40:39;1.80;;;1.20;;
35324;SDS011;35135;47.510;19.036;2022-10-20T03:43:05;1.63;;;1.10;;
35324;SDS011;35135;47.510;19.036;2022-10-20T03:45:31;1.38;;;1.10;;
35324;SDS011;35135;47.510;19.036;2022-10-20T03:47:56;2.75;;;1.10;;
35324;SDS011;35135;47.510;19.036;2022-10-20T03:50:22;1.52;;;1.10;;
35324;SDS011;35135;47.510;19.036;2022-10-20T03:52:48;1.73;;;1.10;;
35324;SDS011;35135;47.510;19.036;2022-10-20T03:55:15;1.98;;;1.17;;
35324;SDS011;35135;47.510;19.036;2022-10-20T03:57:42;1.10;;;1.00;;
35324;SDS011;35135;47.510;19.036;2022-10-20T04:00:07;1.33;;;0.90;;
35324;SDS011;35135;47.510;19.036;2022-10-20T04:02:35;1.48;;;1.05;;
35324;SDS011;35135;47.510;19.036;2022-10-20T04:05:02;2.05;;;1.40;;
35324;SDS011;35135;47.510;19.036;2022-10-20T04:07:29;1.25;;;1.02;;
35324;SDS011;35135;47.510;19.036;2022-10-20T04:09:55;1.98;;;1.20;;
35324;SDS011;35135;47.510;19.036;2022-10-20T04:12:20;1.25;;;1.15;;
35324;SDS011;35135;47.510;19.036;2022-10-20T04:14:47;1.48;;;1.17;;
35324;SDS011;35135;47.510;19.036;2022-10-20T04:17:13;2.35;;;1.52;;
35324;SDS011;35135;47.510;19.036;2022-10-20T04:19:38;1.95;;;1.35;;
35324;SDS011;35135;47.510;19.036;2022-10-20T04:22:04;2.30;;;1.20;;
35324;SDS011;35135;47.510;19.036;2022-10-20T04:24:30;1.70;;;1.08;;
35324;SDS011;35135;47.510;19.036;2022-10-20T04:26:56;1.75;;;1.20;;
35324;SDS011;35135;47.510;19.036;2022-10-20T04:29:22;1.20;;;1.10;;
35324;SDS011;35135;47.510;19.036;2022-10-20T04:31:47;1.75;;;1.08;;
35324;SDS011;35135;47.510;19.036;2022-10-20T04:34:13;1.48;;;1.15;;
35324;SDS011;35135;47.510;19.036;2022-10-20T04:36:38;1.02;;;0.85;;
35324;SDS011;35135;47.510;19.036;2022-10-20T04:39:04;1.30;;;1.00;;
35324;SDS011;35135;47.510;19.036;2022-10-20T04:41:30;1.50;;;1.13;;
35324;SDS011;35135;47.510;19.036;2022-10-20T04:43:56;1.67;;;0.90;;
35324;SDS011;35135;47.510;19.036;2022-10-20T04:46:22;1.60;;;1.20;;
35324;SDS011;35135;47.510;19.036;2022-10-20T04:48:48;1.80;;;1.20;;
35324;SDS011;35135;47.510;19.036;2022-10-20T04:51:14;1.50;;;1.00;;
35324;SDS011;35135;47.510;19.036;2022-10-20T04:53:40;1.55;;;1.10;;
35324;SDS011;35135;47.510;19.036;2022-10-20T04:56:07;1.25;;;1.00;;
35324;SDS011;35135;47.510;19.036;2022-10-20T04:58:35;1.48;;;1.33;;
35324;SDS011;35135;47.510;19.036;2022-10-20T05:01:10;1.48;;;1.13;;
35324;SDS011;35135;47.510;19.036;2022-10-20T05:03:36;1.95;;;1.33;;
35324;SDS011;35135;47.510;19.036;2022-10-20T05:06:14;1.88;;;1.23;;
35324;SDS011;35135;47.510;19.036;2022-10-20T05:08:42;2.20;;;1.30;;
35324;SDS011;35135;47.510;19.036;2022-10-20T05:11:10;2.92;;;1.30;;
35324;SDS011;35135;47.510;19.036;2022-10-20T05:13:37;2.30;;;1.38;;
35324;SDS011;35135;47.510;19.036;2022-10-20T05:16:03;2.50;;;1.40;;
35324;SDS011;35135;47.510;19.036;2022-10-20T05:18:30;2.97;;;1.45;;
35324;SDS011;35135;47.510;19.036;2022-10-20T05:20:56;1.88;;;1.50;;
35324;SDS011;35135;47.510;19.036;2022-10-20T05:23:22;2.83;;;1.45;;
35324;SDS011;35135;47.510;19.036;2022-10-20T05:25:48;1.52;;;1.15;;
35324;SDS011;35135;47.510;19.036;2022-10-20T05:28:14;2.42;;;1.55;;
35324;SDS011;35135;47.510;19.036;2022-10-20T05:30:40;1.75;;;1.20;;
35324;SDS011;35135;47.510;19.036;2022-10-20T05:33:06;3.70;;;1.40;;
35324;SDS011;35135;47.510;19.036;2022-10-20T05:35:32;2.35;;;1.58;;
35324;SDS011;35135;47.510;19.036;2022-10-20T05:37:58;3.00;;;1.23;;
35324;SDS011;35135;47.510;19.036;2022-10-20T05:40:23;2.83;;;1.50;;
35324;SDS011;35135;47.510;19.036;2022-10-20T05:42:49;5.40;;;1.50;;
35324;SDS011;35135;47.510;19.036;2022-10-20T05:45:15;3.85;;;1.73;;
35324;SDS011;35135;47.510;19.036;2022-10-20T05:47:41;7.38;;;1.70;;
35324;SDS011;35135;47.510;19.036;2022-10-20T05:50:07;5.63;;;1.63;;
35324;SDS011;35135;47.510;19.036;2022-10-20T05:52:34;3.60;;;1.48;;
35324;SDS011;35135;47.510;19.036;2022-10-20T05:55:00;5.07;;;1.80;;
35324;SDS011;35135;47.510;19.036;2022-10-20T05:57:27;4.82;;;1.95;;
35324;SDS011;35135;47.510;19.036;2022-10-20T05:59:52;4.80;;;1.30;;
35324;SDS011;35135;47.510;19.036;2022-10-20T06:02:18;5.68;;;1.90;;
35324;SDS011;35135;47.510;19.036;2022-10-20T06:04:44;9.75;;;2.03;;
35324;SDS011;35135;47.510;19.036;2022-10-20T06:07:10;5.43;;;1.83;;
35324;SDS011;35135;47.510;19.036;2022-10-20T06:09:36;2.65;;;1.35;;
35324;SDS011;35135;47.510;19.036;2022-10-20T06:12:03;3.58;;;1.60;;
35324;SDS011;35135;47.510;19.036;2022-10-20T06:14:29;7.22;;;2.13;;
35324;SDS011;35135;47.510;19.036;2022-10-20T06:16:55;5.22;;;2.05;;
35324;SDS011;35135;47.510;19.036;2022-10-20T06:19:22;4.55;;;1.90;;
35324;SDS011;35135;47.510;19.036;2022-10-20T06:21:48;6.68;;;1.70;;
35324;SDS011;35135;47.510;19.036;2022-10-20T06:24:15;5.47;;;1.50;;
35324;SDS011;35135;47.510;19.036;2022-10-20T06:26:41;3.40;;;1.85;;
35324;SDS011;35135;47.510;19.036;2022-10-20T06:29:11;5.63;;;2.10;;
35324;SDS011;35135;47.510;19.036;2022-10-20T06:31:41;5.40;;;1.90;;
35324;SDS011;35135;47.510;19.036;2022-10-20T06:37:00;3.43;;;1.90;;
35324;SDS011;35135;47.510;19.036;2022-10-20T06:39:25;3.80;;;1.83;;
35324;SDS011;35135;47.510;19.036;2022-10-20T06:41:52;2.92;;;1.92;;
35324;SDS011;35135;47.510;19.036;2022-10-20T06:44:19;2.72;;;2.00;;
35324;SDS011;35135;47.510;19.036;2022-10-20T06:46:46;6.07;;;1.92;;
35324;SDS011;35135;47.510;19.036;2022-10-20T06:49:12;2.72;;;1.92;;
35324;SDS011;35135;47.510;19.036;2022-10-20T06:51:39;4.90;;;1.90;;
35324;SDS011;35135;47.510;19.036;2022-10-20T06:54:05;3.17;;;2.03;;
35324;SDS011;35135;47.510;19.036;2022-10-20T06:56:32;5.88;;;2.38;;
35324;SDS011;35135;47.510;19.036;2022-10-20T06:58:59;6.07;;;2.00;;
35324;SDS011;35135;47.510;19.036;2022-10-20T07:01:26;3.35;;;1.65;;
35324;SDS011;35135;47.510;19.036;2022-10-20T07:03:54;5.05;;;2.10;;
35324;SDS011;35135;47.510;19.036;2022-10-20T07:06:26;5.15;;;1.80;;
35324;SDS011;35135;47.510;19.036;2022-10-20T07:08:53;2.72;;;1.67;;
35324;SDS011;35135;47.510;19.036;2022-10-20T07:11:26;3.28;;;1.92;;
35324;SDS011;35135;47.510;19.036;2022-10-20T07:13:52;4.30;;;1.92;;
35324;SDS011;35135;47.510;19.036;2022-10-20T07:16:20;3.88;;;2.03;;
35324;SDS011;35135;47.510;19.036;2022-10-20T07:18:47;3.22;;;1.75;;
35324;SDS011;35135;47.510;19.036;2022-10-20T07:21:14;4.72;;;1.95;;
35324;SDS011;35135;47.510;19.036;2022-10-20T07:23:41;3.92;;;1.70;;
35324;SDS011;35135;47.510;19.036;2022-10-20T07:26:14;3.78;;;2.00;;
35324;SDS011;35135;47.510;19.036;2022-10-20T07:28:48;4.32;;;1.85;;
35324;SDS011;35135;47.510;19.036;2022-10-20T07:31:20;2.45;;;1.60;;
35324;SDS011;35135;47.510;19.036;2022-10-20T07:33:49;4.18;;;2.13;;
35324;SDS011;35135;47.510;19.036;2022-10-20T07:36:20;4.50;;;1.92;;
35324;SDS011;35135;47.510;19.036;2022-10-20T07:38:48;3.55;;;1.75;;
35324;SDS011;35135;47.510;19.036;2022-10-20T07:41:15;3.13;;;1.80;;
35324;SDS011;35135;47.510;19.036;2022-10-20T07:43:41;3.10;;;1.73;;
35324;SDS011;35135;47.510;19.036;2022-10-20T07:46:08;3.38;;;1.88;;
35324;SDS011;35135;47.510;19.036;2022-10-20T07:48:34;2.80;;;1.85;;
35324;SDS011;35135;47.510;19.036;2022-10-20T07:51:17;3.20;;;1.80;;
35324;SDS011;35135;47.510;19.036;2022-10-20T07:53:49;2.95;;;1.75;;
35324;SDS011;35135;47.510;19.036;2022-10-20T07:56:22;4.05;;;2.25;;
35324;SDS011;35135;47.510;19.036;2022-10-20T07:58:48;2.25;;;1.73;;
35324;SDS011;35135;47.510;19.036;2022-10-20T08:01:14;3.67;;;2.00;;
35324;SDS011;35135;47.510;19.036;2022-10-20T08:03:40;2.65;;;1.73;;
35324;SDS011;35135;47.510;19.036;2022-10-20T08:06:05;2.50;;;1.60;;
35324;SDS011;35135;47.510;19.036;2022-10-20T08:08:31;5.15;;;1.83;;
35324;SDS011;35135;47.510;19.036;2022-10-20T08:10:57;3.63;;;1.60;;
35324;SDS011;35135;47.510;19.036;2022-10-20T08:13:27;2.60;;;1.70;;
35324;SDS011;35135;47.510;19.036;2022-10-20T08:15:53;2.72;;;1.63;;
35324;SDS011;35135;47.510;19.036;2022-10-20T08:18:18;2.60;;;1.45;;
35324;SDS011;35135;47.510;19.036;2022-10-20T08:20:44;3.10;;;1.90;;
35324;SDS011;35135;47.510;19.036;2022-10-20T08:23:11;7.47;;;2.00;;
35324;SDS011;35135;47.510;19.036;2022-10-20T08:25:36;4.50;;;2.10;;
35324;SDS011;35135;47.510;19.036;2022-10-20T08:28:02;2.65;;;1.73;;
35324;SDS011;35135;47.510;19.036;2022-10-20T08:30:28;2.38;;;1.88;;
35324;SDS011;35135;47.510;19.036;2022-10-20T08:32:55;2.50;;;1.60;;
35324;SDS011;35135;47.510;19.036;2022-10-20T08:35:21;2.38;;;1.60;;
35324;SDS011;35135;47.510;19.036;2022-10-20T08:37:47;3.85;;;1.67;;
35324;SDS011;35135;47.510;19.036;2022-10-20T08:40:16;1.80;;;1.50;;
35324;SDS011;35135;47.510;19.036;2022-10-20T08:42:46;3.13;;;1.83;;
35324;SDS011;35135;47.510;19.036;2022-10-20T08:45:13;3.35;;;1.95;;
35324;SDS011;35135;47.510;19.036;2022-10-20T08:47:41;2.80;;;1.58;;
35324;SDS011;35135;47.510;19.036;2022-10-20T08:50:09;2.95;;;1.45;;
35324;SDS011;35135;47.510;19.036;2022-10-20T08:52:39;3.05;;;1.83;;
35324;SDS011;35135;47.510;19.036;2022-10-20T08:55:06;2.58;;;1.63;;
35324;SDS011;35135;47.510;19.036;2022-10-20T08:57:34;3.17;;;1.60;;
35324;SDS011;35135;47.510;19.036;2022-10-20T09:00:33;2.80;;;1.85;;
35324;SDS011;35135;47.510;19.036;2022-10-20T09:02:52;3.03;;;1.65;;
35324;SDS011;35135;47.510;19.036;2022-10-20T09:05:28;2.95;;;1.60;;
35324;SDS011;35135;47.510;19.036;2022-10-20T09:07:56;2.78;;;1.60;;
35324;SDS011;35135;47.510;19.036;2022-10-20T09:10:28;2.35;;;1.85;;
35324;SDS011;35135;47.510;19.036;2022-10-20T09:13:00;2.58;;;1.80;;
35324;SDS011;35135;47.510;19.036;2022-10-20T09:15:26;1.67;;;1.40;;
35324;SDS011;35135;47.510;19.036;2022-10-20T09:17:54;2.63;;;1.50;;
35324;SDS011;35135;47.510;19.036;2022-10-20T09:20:26;2.80;;;1.50;;
35324;SDS011;35135;47.510;19.036;2022-10-20T09:23:02;3.55;;;1.98;;
35324;SDS011;35135;47.510;19.036;2022-10-20T09:25:28;2.45;;;1.50;;
35324;SDS011;35135;47.510;19.036;2022-10-20T09:27:54;2.35;;;1.45;;
35324;SDS011;35135;47.510;19.036;2022-10-20T09:30:21;3.08;;;1.88;;
35324;SDS011;35135;47.510;19.036;2022-10-20T09:32:50;2.30;;;1.80;;
35324;SDS011;35135;47.510;19.036;2022-10-20T09:41:24;2.55;;;1.60;;
35324;SDS011;35135;47.510;19.036;2022-10-20T09:46:22;3.08;;;1.65;;
35324;SDS011;35135;47.510;19.036;2022-10-20T09:48:56;2.58;;;1.83;;
35324;SDS011;35135;47.510;19.036;2022-10-20T09:51:24;3.20;;;1.90;;
35324;SDS011;35135;47.510;19.036;2022-10-20T09:56:24;3.33;;;1.93;;
35324;SDS011;35135;47.510;19.036;2022-10-20T09:58:51;3.08;;;1.80;;
35324;SDS011;35135;47.510;19.036;2022-10-20T10:01:17;2.45;;;1.85;;
35324;SDS011;35135;47.510;19.036;2022-10-20T10:03:44;2.40;;;1.70;;
35324;SDS011;35135;47.510;19.036;2022-10-20T10:08:52;3.80;;;1.90;;
35324;SDS011;35135;47.510;19.036;2022-10-20T10:11:19;2.92;;;1.80;;
35324;SDS011;35135;47.510;19.036;2022-10-20T10:13:48;2.33;;;1.88;;
35324;SDS011;35135;47.510;19.036;2022-10-20T10:16:16;4.22;;;1.55;;
35324;SDS011;35135;47.510;19.036;2022-10-20T10:18:45;2.55;;;1.75;;
35324;SDS011;35135;47.510;19.036;2022-10-20T10:21:44;2.50;;;1.58;;
35324;SDS011;35135;47.510;19.036;2022-10-20T10:24:57;2.58;;;1.88;;
35324;SDS011;35135;47.510;19.036;2022-10-20T10:27:17;2.40;;;1.55;;
35324;SDS011;35135;47.510;19.036;2022-10-20T10:29:45;2.25;;;1.40;;
35324;SDS011;35135;47.510;19.036;2022-10-20T10:32:27;1.83;;;1.38;;
35324;SDS011;35135;47.510;19.036;2022-10-20T10:59:05;2.58;;;1.50;;
35324;SDS011;35135;47.510;19.036;2022-10-20T11:24:56;2.45;;;1.70;;
35324;SDS011;35135;47.510;19.036;2022-10-20T11:27:37;2.00;;;1.38;;
35324;SDS011;35135;47.510;19.036;2022-10-20T11:32:43;3.00;;;1.48;;
35324;SDS011;35135;47.510;19.036;2022-10-20T11:35:35;2.53;;;1.55;;
35324;SDS011;35135;47.510;19.036;2022-10-20T11:40:59;2.65;;;1.75;;
35324;SDS011;35135;47.510;19.036;2022-10-20T11:43:58;1.92;;;1.50;;
35324;SDS011;35135;47.510;19.036;2022-10-20T11:46:51;1.98;;;1.40;;
35324;SDS011;35135;47.510;19.036;2022-10-20T11:49:22;3.28;;;1.88;;
35324;SDS011;35135;47.510;19.036;2022-10-20T12:15:30;2.55;;;1.67;;
35324;SDS011;35135;47.510;19.036;2022-10-20T12:17:57;2.40;;;1.50;;
35324;SDS011;35135;47.510;19.036;2022-10-20T12:23:02;2.23;;;1.47;;
35324;SDS011;35135;47.510;19.036;2022-10-20T12:30:54;2.03;;;1.20;;
35324;SDS011;35135;47.510;19.036;2022-10-20T12:36:31;1.70;;;1.30;;
35324;SDS011;35135;47.510;19.036;2022-10-20T12:41:36;2.45;;;1.20;;
35324;SDS011;35135;47.510;19.036;2022-10-20T12:44:16;1.90;;;1.30;;
35324;SDS011;35135;47.510;19.036;2022-10-20T12:46:50;2.08;;;1.58;;
35324;SDS011;35135;47.510;19.036;2022-10-20T12:49:27;2.45;;;1.60;;
35324;SDS011;35135;47.510;19.036;2022-10-20T12:52:01;2.10;;;1.45;;
35324;SDS011;35135;47.510;19.036;2022-10-20T12:57:21;2.30;;;1.38;;
35324;SDS011;35135;47.510;19.036;2022-10-20T12:59:51;1.90;;;1.30;;
35324;SDS011;35135;47.510;19.036;2022-10-20T13:20:42;2.40;;;1.30;;
35324;SDS011;35135;47.510;19.036;2022-10-20T13:23:13;1.95;;;1.20;;
35324;SDS011;35135;47.510;19.036;2022-10-20T13:28:49;1.77;;;1.30;;
35324;SDS011;35135;47.510;19.036;2022-10-20T13:36:53;1.63;;;1.20;;
35324;SDS011;35135;47.510;19.036;2022-10-20T13:39:47;3.03;;;1.33;;
35324;SDS011;35135;47.510;19.036;2022-10-20T13:42:54;1.75;;;1.38;;
35324;SDS011;35135;47.510;19.036;2022-10-20T13:50:39;2.17;;;1.40;;
35324;SDS011;35135;47.510;19.036;2022-10-20T13:53:18;2.03;;;1.40;;
35324;SDS011;35135;47.510;19.036;2022-10-20T13:58:41;1.60;;;1.33;;
35324;SDS011;35135;47.510;19.036;2022-10-20T14:01:21;1.70;;;1.23;;
35324;SDS011;35135;47.510;19.036;2022-10-20T14:03:48;2.15;;;1.33;;
35324;SDS011;35135;47.510;19.036;2022-10-20T14:11:57;5.65;;;1.35;;
35324;SDS011;35135;47.510;19.036;2022-10-20T14:14:29;2.67;;;1.40;;
35324;SDS011;35135;47.510;19.036;2022-10-20T14:17:00;1.83;;;1.20;;
35324;SDS011;35135;47.510;19.036;2022-10-20T14:19:28;2.90;;;1.58;;
35324;SDS011;35135;47.510;19.036;2022-10-20T14:24:49;3.15;;;1.27;;
35324;SDS011;35135;47.510;19.036;2022-10-20T14:27:19;3.03;;;1.42;;
35324;SDS011;35135;47.510;19.036;2022-10-20T14:29:47;2.38;;;1.42;;
35324;SDS011;35135;47.510;19.036;2022-10-20T14:32:17;2.58;;;1.50;;
35324;SDS011;35135;47.510;19.036;2022-10-20T14:37:27;5.15;;;1.17;;
35324;SDS011;35135;47.510;19.036;2022-10-20T14:40:05;3.90;;;1.40;;
35324;SDS011;35135;47.510;19.036;2022-10-20T14:42:32;2.90;;;1.55;;
35324;SDS011;35135;47.510;19.036;2022-10-20T14:44:59;2.80;;;1.50;;
35324;SDS011;35135;47.510;19.036;2022-10-20T14:47:31;2.17;;;1.48;;
35324;SDS011;35135;47.510;19.036;2022-10-20T14:50:10;4.88;;;1.58;;
35324;SDS011;35135;47.510;19.036;2022-10-20T14:55:46;3.70;;;1.55;;
35324;SDS011;35135;47.510;19.036;2022-10-20T15:01:14;7.60;;;1.80;;
35324;SDS011;35135;47.510;19.036;2022-10-20T15:06:34;4.63;;;1.90;;
35324;SDS011;35135;47.510;19.036;2022-10-20T15:09:00;3.65;;;1.70;;
35324;SDS011;35135;47.510;19.036;2022-10-20T15:11:27;11.88;;;2.35;;
35324;SDS011;35135;47.510;19.036;2022-10-20T15:13:55;4.60;;;1.60;;
35324;SDS011;35135;47.510;19.036;2022-10-20T15:16:42;8.88;;;1.70;;
35324;SDS011;35135;47.510;19.036;2022-10-20T15:22:09;7.93;;;1.85;;
35324;SDS011;35135;47.510;19.036;2022-10-20T15:24:37;7.63;;;1.80;;
35324;SDS011;35135;47.510;19.036;2022-10-20T15:27:03;9.10;;;1.70;;
35324;SDS011;35135;47.510;19.036;2022-10-20T15:29:30;5.10;;;1.83;;
35324;SDS011;35135;47.510;19.036;2022-10-20T15:31:57;5.05;;;1.88;;
35324;SDS011;35135;47.510;19.036;2022-10-20T15:34:23;5.53;;;1.70;;
35324;SDS011;35135;47.510;19.036;2022-10-20T15:36:49;5.38;;;1.80;;
35324;SDS011;35135;47.510;19.036;2022-10-20T15:39:15;6.80;;;1.92;;
35324;SDS011;35135;47.510;19.036;2022-10-20T15:41:41;7.60;;;1.85;;
35324;SDS011;35135;47.510;19.036;2022-10-20T15:44:14;5.38;;;1.58;;
35324;SDS011;35135;47.510;19.036;2022-10-20T15:46:41;4.13;;;1.45;;
35324;SDS011;35135;47.510;19.036;2022-10-20T15:49:09;5.40;;;1.65;;
35324;SDS011;35135;47.510;19.036;2022-10-20T15:51:35;8.15;;;2.13;;
35324;SDS011;35135;47.510;19.036;2022-10-20T15:54:05;5.22;;;1.80;;
35324;SDS011;35135;47.510;19.036;2022-10-20T15:56:31;6.15;;;1.98;;
35324;SDS011;35135;47.510;19.036;2022-10-20T15:58:57;4.85;;;1.58;;
35324;SDS011;35135;47.510;19.036;2022-10-20T16:01:23;4.82;;;1.50;;
35324;SDS011;35135;47.510;19.036;2022-10-20T16:03:49;7.10;;;2.10;;
35324;SDS011;35135;47.510;19.036;2022-10-20T16:06:15;5.85;;;2.03;;
35324;SDS011;35135;47.510;19.036;2022-10-20T16:08:42;5.70;;;1.60;;
35324;SDS011;35135;47.510;19.036;2022-10-20T16:11:10;7.45;;;2.13;;
35324;SDS011;35135;47.510;19.036;2022-10-20T16:13:36;5.82;;;1.75;;
35324;SDS011;35135;47.510;19.036;2022-10-20T16:16:02;9.65;;;1.88;;
35324;SDS011;35135;47.510;19.036;2022-10-20T16:18:29;5.40;;;1.48;;
35324;SDS011;35135;47.510;19.036;2022-10-20T16:20:58;4.20;;;1.27;;
35324;SDS011;35135;47.510;19.036;2022-10-20T16:23:24;5.13;;;1.40;;
35324;SDS011;35135;47.510;19.036;2022-10-20T16:25:50;3.42;;;1.10;;
35324;SDS011;35135;47.510;19.036;2022-10-20T16:28:16;3.08;;;1.30;;
35324;SDS011;35135;47.510;19.036;2022-10-20T16:30:42;3.47;;;1.70;;
35324;SDS011;35135;47.510;19.036;2022-10-20T16:33:08;3.00;;;1.52;;
35324;SDS011;35135;47.510;19.036;2022-10-20T16:35:33;4.25;;;1.55;;
35324;SDS011;35135;47.510;19.036;2022-10-20T16:38:04;6.10;;;1.75;;
35324;SDS011;35135;47.510;19.036;2022-10-20T16:40:30;7.15;;;1.92;;
35324;SDS011;35135;47.510;19.036;2022-10-20T16:42:56;4.20;;;1.73;;
35324;SDS011;35135;47.510;19.036;2022-10-20T16:45:24;10.30;;;2.20;;
35324;SDS011;35135;47.510;19.036;2022-10-20T16:47:50;4.65;;;1.42;;
35324;SDS011;35135;47.510;19.036;2022-10-20T16:50:16;7.68;;;1.98;;
35324;SDS011;35135;47.510;19.036;2022-10-20T16:52:42;8.73;;;1.90;;
35324;SDS011;35135;47.510;19.036;2022-10-20T16:55:07;6.07;;;1.55;;
35324;SDS011;35135;47.510;19.036;2022-10-20T16:57:36;4.53;;;1.80;;
35324;SDS011;35135;47.510;19.036;2022-10-20T17:00:04;7.75;;;1.77;;
35324;SDS011;35135;47.510;19.036;2022-10-20T17:02:32;7.60;;;1.90;;
35324;SDS011;35135;47.510;19.036;2022-10-20T17:05:01;12.80;;;1.90;;
35324;SDS011;35135;47.510;19.036;2022-10-20T17:07:27;15.50;;;2.72;;
35324;SDS011;35135;47.510;19.036;2022-10-20T17:09:53;8.43;;;2.38;;
35324;SDS011;35135;47.510;19.036;2022-10-20T17:12:18;13.38;;;2.10;;
35324;SDS011;35135;47.510;19.036;2022-10-20T17:14:44;18.05;;;2.30;;
35324;SDS011;35135;47.510;19.036;2022-10-20T17:17:10;15.73;;;2.33;;
35324;SDS011;35135;47.510;19.036;2022-10-20T17:19:35;6.72;;;2.10;;
35324;SDS011;35135;47.510;19.036;2022-10-20T17:22:01;10.90;;;1.98;;
35324;SDS011;35135;47.510;19.036;2022-10-20T17:24:27;9.57;;;2.33;;
35324;SDS011;35135;47.510;19.036;2022-10-20T17:26:52;7.50;;;1.90;;
35324;SDS011;35135;47.510;19.036;2022-10-20T17:29:18;8.52;;;2.25;;
35324;SDS011;35135;47.510;19.036;2022-10-20T17:31:44;9.35;;;2.30;;
35324;SDS011;35135;47.510;19.036;2022-10-20T17:34:10;6.90;;;2.38;;
35324;SDS011;35135;47.510;19.036;2022-10-20T17:36:36;4.90;;;2.45;;
35324;SDS011;35135;47.510;19.036;2022-10-20T17:39:05;6.53;;;2.47;;
35324;SDS011;35135;47.510;19.036;2022-10-20T17:41:32;6.68;;;2.42;;
35324;SDS011;35135;47.510;19.036;2022-10-20T17:43:59;8.18;;;2.38;;
35324;SDS011;35135;47.510;19.036;2022-10-20T17:46:26;9.32;;;3.30;;
35324;SDS011;35135;47.510;19.036;2022-10-20T17:48:51;7.50;;;2.55;;
35324;SDS011;35135;47.510;19.036;2022-10-20T17:51:19;9.45;;;2.83;;
35324;SDS011;35135;47.510;19.036;2022-10-20T17:53:46;6.63;;;2.65;;
35324;SDS011;35135;47.510;19.036;2022-10-20T17:58:41;5.88;;;3.08;;
35324;SDS011;35135;47.510;19.036;2022-10-20T18:03:41;14.32;;;3.90;;
35324;SDS011;35135;47.510;19.036;2022-10-20T18:06:09;9.32;;;3.22;;